Time;durP1;ratioP1;P1;durP2;ratioP2;P2;SDS_P1;SDS_P2;PMS_P1;PMS_P2;Temp;Humidity;BMP_temperature;BMP_pressure;BME280_temperature;BME280_humidity;BME280_pressure;Samples;Min_cycle;Max_cycle;Signal;HPM_P1;HPM_P2
2022/12/11 00:01:23;;;;;;;31.87;19.50;;;2.50;99.90;;;;;;5034123;28;20184;-71
2022/12/11 00:03:49;;;;;;;28.60;20.50;;;2.60;99.90;;;;;;5030851;28;20207;-70
2022/12/11 00:06:18;;;;;;;33.77;20.87;;;2.60;99.90;;;;;;5018516;28;20186;-70
2022/12/11 00:08:43;;;;;;;28.43;18.20;;;2.60;99.90;;;;;;5028464;28;20450;-70
2022/12/11 00:11:15;;;;;;;29.67;19.77;;;2.60;99.90;;;;;;5030400;28;20447;-70
2022/12/11 00:13:41;;;;;;;24.43;17.47;;;2.70;99.90;;;;;;5032212;28;20221;-71
2022/12/11 00:16:07;;;;;;;28.63;17.77;;;2.60;99.90;;;;;;5029608;28;20973;-71
2022/12/11 00:18:32;;;;;;;30.30;17.33;;;2.50;99.90;;;;;;5032280;28;20549;-70
2022/12/11 00:21:06;;;;;;;25.40;18.30;;;2.50;99.90;;;;;;5033225;28;20253;-70
2022/12/11 00:23:34;;;;;;;27.10;17.53;;;2.50;99.90;;;;;;5031761;28;20214;-70
2022/12/11 00:25:59;;;;;;;29.93;20.13;;;2.50;99.90;;;;;;5013339;28;20438;-71
2022/12/11 00:28:25;;;;;;;34.33;19.60;;;2.30;99.90;;;;;;5033262;28;20531;-70
2022/12/11 00:30:51;;;;;;;29.10;17.97;;;2.40;99.90;;;;;;5031725;28;20223;-70
2022/12/11 00:33:16;;;;;;;26.37;18.60;;;2.40;99.90;;;;;;5034279;28;20188;-70
2022/12/11 00:35:44;;;;;;;30.30;19.30;;;2.50;99.90;;;;;;5030615;28;20191;-70
2022/12/11 00:38:16;;;;;;;31.50;20.30;;;2.40;99.90;;;;;;5037068;28;21274;-69
2022/12/11 00:40:41;;;;;;;34.40;18.87;;;2.30;99.90;;;;;;5036876;28;20450;-72
2022/12/11 00:43:07;;;;;;;28.33;17.47;;;2.30;99.90;;;;;;5038402;28;20456;-71
2022/12/11 00:45:37;;;;;;;36.50;19.57;;;2.20;99.90;;;;;;5041747;28;20475;-72
2022/12/11 00:48:03;;;;;;;29.03;18.47;;;2.30;99.90;;;;;;5038171;28;20210;-72
2022/12/11 00:50:29;;;;;;;31.67;20.43;;;2.40;99.90;;;;;;5033595;28;20426;-71
2022/12/11 00:52:54;;;;;;;27.07;17.80;;;2.30;99.90;;;;;;5036294;28;20436;-70
2022/12/11 00:55:20;;;;;;;30.20;19.70;;;2.30;99.90;;;;;;5032646;28;20216;-70
2022/12/11 00:57:46;;;;;;;26.47;17.70;;;2.40;99.90;;;;;;5036853;28;20201;-70
2022/12/11 01:00:12;;;;;;;30.83;19.30;;;2.40;99.90;;;;;;5039348;28;20594;-70
2022/12/11 01:02:38;;;;;;;33.33;21.53;;;2.30;99.90;;;;;;5037046;28;20954;-70
2022/12/11 01:05:04;;;;;;;28.90;18.90;;;2.20;99.90;;;;;;5033496;28;20463;-70
2022/12/11 01:07:29;;;;;;;32.47;19.97;;;2.20;99.90;;;;;;5037225;28;20205;-70
2022/12/11 01:12:39;;;;;;;29.07;19.00;;;2.20;99.90;;;;;;5031859;28;20191;-70
2022/12/11 01:15:05;;;;;;;33.47;17.87;;;2.10;99.90;;;;;;5035026;28;20489;-70
2022/12/11 01:17:30;;;;;;;30.70;18.80;;;2.10;99.90;;;;;;5033428;28;20218;-69
2022/12/11 01:19:56;;;;;;;33.30;19.23;;;1.90;99.90;;;;;;5035995;28;21929;-70
2022/12/11 01:22:22;;;;;;;33.40;19.93;;;1.90;99.90;;;;;;5035285;28;20184;-70
2022/12/11 01:24:47;;;;;;;32.27;18.53;;;2.00;99.90;;;;;;5033489;28;20643;-70
2022/12/11 01:27:14;;;;;;;32.67;19.77;;;1.80;99.90;;;;;;5029295;28;20226;-71
2022/12/11 01:29:40;;;;;;;30.77;18.03;;;1.80;99.90;;;;;;5034930;28;20192;-71
2022/12/11 01:32:05;;;;;;;38.10;20.40;;;1.60;99.90;;;;;;5034099;28;20960;-71
2022/12/11 01:34:32;;;;;;;31.93;21.17;;;1.60;99.90;;;;;;5035844;28;20249;-69
2022/12/11 01:36:57;;;;;;;34.90;21.17;;;1.60;99.90;;;;;;5034886;28;20853;-69
2022/12/11 01:39:23;;;;;;;39.03;20.27;;;1.60;99.90;;;;;;5036600;28;20507;-69
2022/12/11 01:41:49;;;;;;;33.50;19.50;;;1.40;99.90;;;;;;5036803;28;20207;-70
2022/12/11 01:44:14;;;;;;;36.80;22.00;;;1.30;99.90;;;;;;5035415;28;20214;-70
2022/12/11 01:46:40;;;;;;;43.00;24.37;;;1.20;99.90;;;;;;5034613;28;20183;-70
2022/12/11 01:49:10;;;;;;;38.20;21.67;;;1.30;99.90;;;;;;5034284;28;20195;-69
2022/12/11 01:51:43;;;;;;;41.53;21.83;;;1.30;99.90;;;;;;5027372;28;20187;-69
2022/12/11 01:54:11;;;;;;;40.03;21.00;;;1.30;99.90;;;;;;5029212;28;20466;-69
2022/12/11 01:56:40;;;;;;;41.37;21.47;;;1.10;99.90;;;;;;5034985;28;20488;-70
2022/12/11 01:59:08;;;;;;;45.30;21.60;;;1.10;99.90;;;;;;5033025;28;20550;-70
2022/12/11 02:01:43;;;;;;;36.80;21.13;;;1.10;99.90;;;;;;5036996;28;20525;-69
2022/12/11 02:04:10;;;;;;;42.17;22.00;;;1.00;99.90;;;;;;5026193;28;20557;-69
2022/12/11 02:06:39;;;;;;;45.60;21.70;;;1.10;99.90;;;;;;5036431;28;21016;-69
2022/12/11 02:09:12;;;;;;;41.10;22.50;;;0.90;99.90;;;;;;5031801;28;20528;-69
2022/12/11 02:11:57;;;;;;;43.40;23.30;;;0.90;99.90;;;;;;5029791;28;20453;-70
2022/12/11 02:14:49;;;;;;;43.23;22.80;;;0.90;99.90;;;;;;5035064;28;21021;-70
2022/12/11 02:17:22;;;;;;;38.47;22.17;;;1.00;99.90;;;;;;5037043;28;20474;-72
2022/12/11 02:20:02;;;;;;;42.20;23.30;;;0.90;99.90;;;;;;5033631;28;20869;-71
2022/12/11 02:22:50;;;;;;;46.03;22.00;;;0.90;99.90;;;;;;5033489;28;20429;-72
2022/12/11 02:25:31;;;;;;;43.77;22.80;;;0.80;99.90;;;;;;5026286;28;20810;-72
2022/12/11 02:28:26;;;;;;;43.33;22.03;;;0.90;99.90;;;;;;5028666;28;20531;-71
2022/12/11 02:31:08;;;;;;;46.60;23.60;;;0.90;99.90;;;;;;5031792;28;20457;-71
2022/12/11 02:33:41;;;;;;;49.77;23.57;;;0.90;99.90;;;;;;5036074;28;20450;-71
2022/12/11 02:36:08;;;;;;;46.87;23.27;;;0.90;99.90;;;;;;5029189;28;20450;-71
2022/12/11 02:38:38;;;;;;;48.53;25.10;;;0.90;99.90;;;;;;5033169;28;20860;-71
2022/12/11 02:41:06;;;;;;;48.83;24.77;;;0.90;99.90;;;;;;5025564;28;20462;-71
2022/12/11 02:43:33;;;;;;;42.37;20.73;;;0.80;99.90;;;;;;5032987;28;20455;-71
2022/12/11 02:45:59;;;;;;;40.90;21.77;;;0.80;99.90;;;;;;5028266;28;20443;-71
2022/12/11 02:48:25;;;;;;;47.73;22.87;;;0.80;99.90;;;;;;5031351;28;20567;-70
2022/12/11 02:50:54;;;;;;;44.23;22.80;;;0.80;99.90;;;;;;5027869;28;21025;-70
2022/12/11 02:53:23;;;;;;;49.30;23.37;;;0.80;99.90;;;;;;5031186;28;20505;-70
2022/12/11 02:55:53;;;;;;;44.47;22.80;;;0.90;99.90;;;;;;5033432;28;20886;-71
2022/12/11 02:58:22;;;;;;;44.80;22.63;;;0.80;99.90;;;;;;5031100;28;20963;-71
2022/12/11 03:00:48;;;;;;;41.90;19.07;;;0.60;99.90;;;;;;5034499;28;21020;-71
2022/12/11 03:03:14;;;;;;;38.93;20.63;;;0.50;99.90;;;;;;5030492;28;20448;-71
2022/12/11 03:05:40;;;;;;;40.60;21.90;;;0.60;99.90;;;;;;5032345;28;20218;-71
2022/12/11 03:08:06;;;;;;;44.07;21.00;;;0.60;99.90;;;;;;5033730;28;20434;-71
2022/12/11 03:10:32;;;;;;;50.90;22.53;;;0.50;99.90;;;;;;5033492;28;20495;-70
2022/12/11 03:12:59;;;;;;;43.87;21.10;;;0.40;99.90;;;;;;5028272;28;20554;-70
2022/12/11 03:15:55;;;;;;;44.80;22.50;;;0.60;99.90;;;;;;5030607;28;20683;-70
2022/12/11 03:18:42;;;;;;;42.60;20.53;;;0.50;99.90;;;;;;5031415;28;20471;-70
2022/12/11 03:21:16;;;;;;;42.40;19.67;;;0.50;99.90;;;;;;5011923;28;20475;-70
2022/12/11 03:24:18;;;;;;;42.60;21.10;;;0.50;99.90;;;;;;5027231;28;20469;-70
2022/12/11 03:26:54;;;;;;;45.97;19.17;;;0.30;99.90;;;;;;5023883;28;20570;-70
2022/12/11 03:29:29;;;;;;;43.07;20.07;;;0.50;99.90;;;;;;5031926;28;20448;-70
2022/12/11 03:32:09;;;;;;;40.43;19.97;;;0.50;99.90;;;;;;5034388;28;20436;-69
2022/12/11 03:35:17;;;;;;;44.47;21.53;;;0.60;99.90;;;;;;5032983;28;20453;-69
2022/12/11 03:37:46;;;;;;;40.50;20.10;;;0.70;99.90;;;;;;4971842;28;20604;-70
2022/12/11 03:40:15;;;;;;;47.03;21.47;;;0.70;99.90;;;;;;5022094;28;20568;-70
2022/12/11 03:42:44;;;;;;;37.30;18.93;;;0.70;99.90;;;;;;5031994;28;20459;-71
2022/12/11 03:45:11;;;;;;;46.03;23.37;;;0.80;99.90;;;;;;5013820;28;20468;-71
2022/12/11 03:47:39;;;;;;;43.70;20.43;;;0.70;99.90;;;;;;5028140;28;20446;-70
2022/12/11 03:50:08;;;;;;;48.40;21.00;;;0.70;99.90;;;;;;5031851;28;20443;-70
2022/12/11 03:52:35;;;;;;;46.53;21.67;;;0.70;99.90;;;;;;5030687;28;20427;-71
2022/12/11 03:55:04;;;;;;;47.03;22.90;;;0.80;99.90;;;;;;5031920;28;20555;-71
2022/12/11 03:57:34;;;;;;;41.87;21.73;;;0.80;99.90;;;;;;5023624;28;20467;-73
2022/12/11 03:59:59;;;;;;;52.53;23.00;;;0.80;99.90;;;;;;5031967;28;20947;-71
2022/12/11 04:02:25;;;;;;;45.90;23.23;;;0.90;99.90;;;;;;5033106;28;20445;-70
2022/12/11 04:04:51;;;;;;;51.50;25.10;;;0.80;99.90;;;;;;5026211;28;20254;-69
2022/12/11 04:07:16;;;;;;;51.43;24.53;;;0.90;99.90;;;;;;5023363;28;20189;-69
2022/12/11 04:09:42;;;;;;;44.73;22.87;;;1.00;99.90;;;;;;5029111;28;20192;-70
2022/12/11 04:12:07;;;;;;;45.67;22.63;;;1.00;99.90;;;;;;5026671;28;20187;-70
2022/12/11 04:24:14;;;;;;;44.87;23.40;;;1.00;99.90;;;;;;5037356;28;20273;-70
2022/12/11 04:25:32;;;;;;;39.57;19.97;;;1.10;99.90;;;;;;5034415;28;20826;-70
2022/12/11 04:27:58;;;;;;;39.87;18.27;;;1.10;99.90;;;;;;5030724;28;20438;-70
2022/12/11 04:30:25;;;;;;;50.13;22.60;;;1.00;99.90;;;;;;5030993;28;20453;-70
2022/12/11 04:32:52;;;;;;;44.90;21.30;;;1.00;99.90;;;;;;5029768;28;20192;-70
2022/12/11 04:35:18;;;;;;;41.57;20.50;;;0.90;99.90;;;;;;5035097;28;20454;-70
2022/12/11 04:37:43;;;;;;;44.47;21.73;;;0.90;99.90;;;;;;5038047;28;20521;-70
2022/12/11 04:40:12;;;;;;;40.40;20.83;;;0.80;99.90;;;;;;5033702;28;21240;-70
2022/12/11 04:42:37;;;;;;;44.10;21.40;;;0.80;99.90;;;;;;5036778;28;20236;-70
2022/12/11 04:45:04;;;;;;;39.53;20.83;;;0.90;99.90;;;;;;5035417;28;20445;-71
2022/12/11 04:47:30;;;;;;;43.77;21.40;;;0.80;99.90;;;;;;5035239;28;20240;-69
2022/12/11 04:49:55;;;;;;;46.87;21.90;;;0.80;99.90;;;;;;5037304;28;20437;-68
2022/12/11 04:52:21;;;;;;;43.40;21.10;;;0.80;99.90;;;;;;5037443;28;20199;-71
2022/12/11 04:54:47;;;;;;;48.33;22.57;;;0.90;99.90;;;;;;5037811;28;20210;-69
2022/12/11 04:57:12;;;;;;;39.10;18.50;;;0.90;99.90;;;;;;5033882;28;20397;-69
2022/12/11 04:59:38;;;;;;;44.20;21.23;;;0.90;99.90;;;;;;5033933;28;20763;-69
2022/12/11 05:02:03;;;;;;;41.67;20.23;;;0.80;99.90;;;;;;5039617;28;20191;-70
2022/12/11 05:04:33;;;;;;;49.90;23.90;;;0.80;99.90;;;;;;5033921;28;20226;-70
2022/12/11 05:07:00;;;;;;;43.30;22.97;;;0.80;99.90;;;;;;5034571;28;20223;-70
2022/12/11 05:09:26;;;;;;;47.97;21.37;;;0.90;99.90;;;;;;5032148;28;20434;-71
2022/12/11 05:11:52;;;;;;;49.37;23.27;;;1.00;99.90;;;;;;5033143;28;20425;-70
2022/12/11 05:14:18;;;;;;;44.60;22.23;;;0.90;99.90;;;;;;5034060;28;20471;-71
2022/12/11 05:16:44;;;;;;;48.13;22.57;;;0.90;99.90;;;;;;5035971;28;20481;-70
2022/12/11 05:19:09;;;;;;;48.97;23.40;;;1.00;99.90;;;;;;5031880;28;20297;-71
2022/12/11 05:21:35;;;;;;;44.27;20.60;;;1.00;99.90;;;;;;5035615;28;20185;-71
2022/12/11 05:24:01;;;;;;;40.33;21.93;;;1.00;99.90;;;;;;5028048;28;20212;-71
2022/12/11 05:26:26;;;;;;;46.53;22.33;;;1.00;99.90;;;;;;5036020;28;20637;-70
2022/12/11 05:28:53;;;;;;;44.40;22.47;;;1.00;99.90;;;;;;5034789;28;20194;-71
2022/12/11 05:31:21;;;;;;;43.03;22.60;;;0.90;99.90;;;;;;5035034;28;20278;-70
2022/12/11 05:33:49;;;;;;;41.37;19.00;;;0.90;99.90;;;;;;5033376;28;20560;-70
2022/12/11 05:36:20;;;;;;;47.03;22.97;;;0.90;99.90;;;;;;5037524;28;20447;-70
2022/12/11 05:38:46;;;;;;;44.67;22.20;;;1.00;99.90;;;;;;5036044;28;20470;-70
2022/12/11 05:41:15;;;;;;;45.53;20.93;;;0.90;99.90;;;;;;5034669;28;21220;-70
2022/12/11 05:43:41;;;;;;;44.07;22.70;;;1.00;99.90;;;;;;5036256;28;20211;-70
2022/12/11 05:46:17;;;;;;;44.20;22.30;;;1.00;99.90;;;;;;5031094;28;21014;-70
2022/12/11 05:48:45;;;;;;;41.33;22.53;;;1.00;99.90;;;;;;5037446;28;20418;-70
2022/12/11 05:51:12;;;;;;;41.83;21.23;;;1.10;99.90;;;;;;5034401;28;21062;-70
2022/12/11 05:53:38;;;;;;;39.17;22.60;;;1.00;99.90;;;;;;5039580;28;20450;-70
2022/12/11 05:56:13;;;;;;;48.20;20.80;;;0.80;99.90;;;;;;5032973;28;20451;-70
2022/12/11 05:58:39;;;;;;;41.47;20.10;;;0.90;99.90;;;;;;5032766;28;20470;-70
2022/12/11 06:01:10;;;;;;;43.30;20.57;;;0.90;99.90;;;;;;5033575;28;20773;-70
2022/12/11 06:03:36;;;;;;;41.90;22.03;;;1.00;99.90;;;;;;5034664;28;20469;-68
2022/12/11 06:06:03;;;;;;;42.97;21.57;;;0.90;99.90;;;;;;5030431;28;20461;-69
2022/12/11 06:08:29;;;;;;;40.13;21.33;;;0.90;99.90;;;;;;5035804;28;20198;-70
2022/12/11 06:10:54;;;;;;;46.93;21.97;;;1.00;99.90;;;;;;5032483;28;20453;-69
2022/12/11 06:13:20;;;;;;;41.33;22.07;;;1.00;99.90;;;;;;5038182;28;20830;-70
2022/12/11 06:15:45;;;;;;;47.83;22.30;;;1.00;99.90;;;;;;5038178;28;20187;-70
2022/12/11 06:18:11;;;;;;;43.83;21.07;;;1.00;99.90;;;;;;5035864;28;20215;-70
2022/12/11 06:20:37;;;;;;;41.10;21.30;;;1.10;99.90;;;;;;5032286;28;20190;-70
2022/12/11 06:23:02;;;;;;;41.07;21.70;;;1.10;99.90;;;;;;5029723;28;20180;-70
2022/12/11 06:25:29;;;;;;;45.30;23.87;;;1.10;99.90;;;;;;5030390;28;20225;-70
2022/12/11 06:27:54;;;;;;;44.67;21.97;;;0.80;99.90;;;;;;5033721;28;20576;-70
2022/12/11 06:30:20;;;;;;;43.37;19.90;;;0.90;99.90;;;;;;5030006;28;20526;-70
2022/12/11 06:32:46;;;;;;;40.97;21.40;;;1.10;99.90;;;;;;5035372;28;20294;-70
2022/12/11 06:35:11;;;;;;;36.10;19.43;;;0.90;99.90;;;;;;5031899;28;20238;-70
2022/12/11 06:37:39;;;;;;;37.93;21.67;;;0.90;99.90;;;;;;5032928;28;20222;-70
2022/12/11 06:40:05;;;;;;;48.67;22.27;;;1.00;99.90;;;;;;5032856;28;20179;-70
2022/12/11 06:42:31;;;;;;;44.03;21.13;;;1.10;99.90;;;;;;5037152;28;20468;-70
2022/12/11 06:44:58;;;;;;;54.60;21.73;;;1.10;99.90;;;;;;5032496;28;20500;-70
2022/12/11 06:47:28;;;;;;;45.70;20.53;;;1.00;99.90;;;;;;5032383;28;20266;-69
2022/12/11 06:49:54;;;;;;;40.63;21.03;;;1.00;99.90;;;;;;5015423;28;20947;-69
2022/12/11 06:52:21;;;;;;;47.33;22.30;;;0.90;99.90;;;;;;5029412;28;20430;-69
2022/12/11 06:54:47;;;;;;;37.73;19.50;;;0.90;99.90;;;;;;5032751;28;20649;-69
2022/12/11 06:57:14;;;;;;;42.20;22.47;;;0.80;99.90;;;;;;5032165;28;20625;-69
2022/12/11 06:59:39;;;;;;;42.30;21.97;;;1.00;99.90;;;;;;5020121;28;20448;-70
2022/12/11 07:02:05;;;;;;;44.83;21.60;;;0.90;99.90;;;;;;5034062;28;20442;-68
2022/12/11 07:04:31;;;;;;;44.57;22.40;;;0.90;99.90;;;;;;5033138;28;20220;-69
2022/12/11 07:06:56;;;;;;;46.60;22.73;;;0.90;99.90;;;;;;5027445;28;20241;-69
2022/12/11 07:09:23;;;;;;;42.33;20.83;;;0.90;99.90;;;;;;5029368;28;20191;-68
2022/12/11 07:11:50;;;;;;;51.10;22.57;;;0.80;99.90;;;;;;5030948;28;20446;-71
2022/12/11 07:14:16;;;;;;;41.43;20.20;;;0.90;99.90;;;;;;5006911;28;20464;-68
2022/12/11 07:16:41;;;;;;;43.37;21.77;;;1.00;99.90;;;;;;5031546;28;20443;-69
2022/12/11 07:19:07;;;;;;;48.93;22.53;;;1.00;99.90;;;;;;5027460;28;20208;-69
2022/12/11 07:21:32;;;;;;;42.17;21.47;;;1.00;99.90;;;;;;5034695;28;20193;-69
2022/12/11 07:23:58;;;;;;;47.20;22.70;;;1.00;99.90;;;;;;5028434;28;20278;-70
2022/12/11 07:26:24;;;;;;;46.93;22.07;;;1.00;99.90;;;;;;5035459;28;20183;-70
2022/12/11 07:28:50;;;;;;;42.83;22.83;;;1.10;99.90;;;;;;5031734;28;20649;-69
2022/12/11 07:31:18;;;;;;;53.07;23.13;;;1.00;99.90;;;;;;5031063;28;20183;-69
2022/12/11 07:33:44;;;;;;;46.70;21.03;;;1.00;99.90;;;;;;5011276;28;20457;-68
2022/12/11 07:36:11;;;;;;;39.27;20.47;;;0.90;99.90;;;;;;5028268;28;20940;-68
2022/12/11 07:38:37;;;;;;;42.33;22.00;;;1.00;99.90;;;;;;5027974;28;20208;-69
2022/12/11 07:41:10;;;;;;;41.77;20.30;;;1.00;99.90;;;;;;5027789;28;20907;-69
2022/12/11 07:43:36;;;;;;;42.30;19.73;;;1.00;99.90;;;;;;5027661;28;20507;-69
2022/12/11 07:46:04;;;;;;;39.70;20.40;;;1.10;99.90;;;;;;5029266;28;20717;-68
2022/12/11 07:48:30;;;;;;;46.27;21.80;;;1.10;99.90;;;;;;5029557;28;20218;-68
2022/12/11 07:51:05;;;;;;;39.70;21.43;;;1.00;99.90;;;;;;5029785;28;20868;-68
2022/12/11 07:53:31;;;;;;;44.27;22.07;;;1.00;99.90;;;;;;5029825;28;20234;-68
2022/12/11 07:55:58;;;;;;;40.33;20.17;;;1.10;99.90;;;;;;5027853;28;20422;-68
2022/12/11 07:58:23;;;;;;;42.30;20.93;;;1.10;99.90;;;;;;5030049;28;20211;-69
2022/12/11 08:00:49;;;;;;;43.70;22.17;;;1.10;99.90;;;;;;5032027;28;20445;-69
2022/12/11 08:03:14;;;;;;;40.53;19.87;;;1.10;99.90;;;;;;5033108;28;20560;-69
2022/12/11 08:05:47;;;;;;;42.43;20.13;;;1.20;99.90;;;;;;5036124;28;20253;-69
2022/12/11 08:08:12;;;;;;;35.00;18.40;;;1.30;99.90;;;;;;5030044;28;20184;-69
2022/12/11 08:10:38;;;;;;;39.73;19.10;;;1.20;99.90;;;;;;5036156;28;20943;-68
2022/12/11 08:13:03;;;;;;;44.97;20.30;;;1.30;99.90;;;;;;5028364;28;20594;-68
2022/12/11 08:15:29;;;;;;;38.17;19.40;;;1.20;99.90;;;;;;5039603;28;20681;-68
2022/12/11 08:17:54;;;;;;;49.93;21.13;;;1.20;99.90;;;;;;5031443;28;20204;-68
2022/12/11 08:20:20;;;;;;;37.60;19.97;;;1.20;99.90;;;;;;5032432;28;20192;-68
2022/12/11 08:22:46;;;;;;;42.40;22.97;;;1.20;99.90;;;;;;5026879;28;20234;-68
2022/12/11 08:25:11;;;;;;;48.53;23.80;;;1.30;99.90;;;;;;5027591;28;20211;-69
2022/12/11 08:27:37;;;;;;;42.43;21.67;;;1.30;99.90;;;;;;5028605;28;20279;-69
2022/12/11 08:30:03;;;;;;;40.13;20.77;;;1.40;99.90;;;;;;5029706;28;20194;-69
2022/12/11 08:32:28;;;;;;;39.50;19.37;;;1.40;99.90;;;;;;5029948;28;20192;-69
2022/12/11 08:34:54;;;;;;;43.03;20.87;;;1.40;99.90;;;;;;5031793;28;20528;-70
2022/12/11 08:37:19;;;;;;;44.60;22.43;;;1.30;99.90;;;;;;5026330;28;20982;-69
2022/12/11 08:39:45;;;;;;;44.80;20.93;;;1.40;99.90;;;;;;5030571;28;20200;-69
2022/12/11 08:42:11;;;;;;;40.20;19.90;;;1.40;99.90;;;;;;5030015;28;20729;-70
2022/12/11 08:44:37;;;;;;;40.83;20.00;;;1.50;99.90;;;;;;5012793;28;20501;-69
2022/12/11 08:47:02;;;;;;;43.17;19.60;;;1.40;99.90;;;;;;5026711;28;20188;-69
2022/12/11 08:49:28;;;;;;;43.43;22.27;;;1.40;99.90;;;;;;5035120;28;20275;-69
2022/12/11 08:51:53;;;;;;;41.37;20.87;;;1.40;99.90;;;;;;5031127;28;20849;-69
2022/12/11 08:54:19;;;;;;;47.97;21.20;;;1.40;99.90;;;;;;5028567;28;20964;-69
2022/12/11 08:56:44;;;;;;;41.83;20.73;;;1.40;99.90;;;;;;5014536;28;20660;-69
2022/12/11 08:59:10;;;;;;;39.83;20.40;;;1.40;99.90;;;;;;5030125;28;20243;-69
2022/12/11 09:01:36;;;;;;;39.80;21.60;;;1.50;99.90;;;;;;5037363;28;20633;-68
2022/12/11 09:04:01;;;;;;;38.87;18.33;;;1.50;99.90;;;;;;5030765;28;20215;-69
2022/12/11 09:06:29;;;;;;;40.47;19.73;;;1.60;99.90;;;;;;5036179;28;20177;-69
2022/12/11 09:08:55;;;;;;;49.17;20.30;;;1.60;99.90;;;;;;5034281;28;20188;-69
2022/12/11 09:11:24;;;;;;;45.70;20.57;;;1.60;99.90;;;;;;5036295;28;20944;-68
2022/12/11 09:13:50;;;;;;;42.00;19.40;;;1.70;99.90;;;;;;5033159;28;20450;-69
2022/12/11 09:16:18;;;;;;;39.43;19.47;;;1.70;99.90;;;;;;5031902;28;20943;-69
2022/12/11 09:18:46;;;;;;;44.73;19.80;;;1.70;99.90;;;;;;5012038;28;20475;-69
2022/12/11 09:21:16;;;;;;;36.47;18.10;;;1.60;99.90;;;;;;5028466;28;20984;-69
2022/12/11 09:23:42;;;;;;;44.10;20.90;;;1.70;99.90;;;;;;5031351;28;20822;-70
2022/12/11 09:26:11;;;;;;;45.13;21.07;;;1.70;99.90;;;;;;5033030;28;20530;-69
2022/12/11 09:28:38;;;;;;;42.30;20.70;;;1.70;99.90;;;;;;5034303;28;20444;-69
2022/12/11 09:31:17;;;;;;;46.87;21.60;;;1.70;99.90;;;;;;5028806;28;20444;-69
2022/12/11 09:33:44;;;;;;;41.20;18.90;;;1.80;99.90;;;;;;5034373;28;20458;-69
2022/12/11 09:36:10;;;;;;;48.93;25.80;;;1.80;99.90;;;;;;5030781;28;20559;-70
2022/12/11 09:38:37;;;;;;;44.80;21.80;;;1.70;99.90;;;;;;5032833;28;20581;-70
2022/12/11 09:41:22;;;;;;;43.53;20.97;;;1.80;99.90;;;;;;5030925;28;20542;-69
2022/12/11 09:44:14;;;;;;;39.90;21.07;;;1.90;99.90;;;;;;5033435;28;20443;-69
2022/12/11 09:46:41;;;;;;;38.80;19.43;;;2.00;99.90;;;;;;5031981;28;20426;-69
2022/12/11 09:49:21;;;;;;;42.17;20.60;;;2.00;99.90;;;;;;5034009;28;20438;-70
2022/12/11 09:51:58;;;;;;;42.63;21.80;;;2.00;99.90;;;;;;5032326;28;20446;-69
2022/12/11 09:54:24;;;;;;;42.63;23.00;;;2.10;99.90;;;;;;5025950;28;20903;-69
2022/12/11 09:57:08;;;;;;;50.83;21.20;;;2.00;99.90;;;;;;5033059;28;20446;-69
2022/12/11 09:59:50;;;;;;;42.17;20.17;;;2.00;99.90;;;;;;5029971;28;20322;-69
2022/12/11 10:02:19;;;;;;;41.23;21.00;;;2.00;99.90;;;;;;5031101;28;20847;-70
2022/12/11 10:04:57;;;;;;;38.33;20.03;;;2.00;99.90;;;;;;5030584;28;20913;-70
2022/12/11 10:07:37;;;;;;;39.10;21.07;;;2.00;99.90;;;;;;5031450;28;20414;-71
2022/12/11 10:10:31;;;;;;;43.97;21.60;;;2.00;99.90;;;;;;5030808;28;20494;-71
2022/12/11 10:13:07;;;;;;;38.53;18.77;;;2.00;99.90;;;;;;5032312;28;20484;-72
2022/12/11 10:15:50;;;;;;;34.83;19.17;;;1.90;99.90;;;;;;5032725;28;20455;-71
2022/12/11 10:18:21;;;;;;;31.23;17.57;;;1.80;99.90;;;;;;5011367;28;21141;-71
2022/12/11 10:20:49;;;;;;;37.90;20.47;;;1.90;99.90;;;;;;5028484;28;20428;-71
2022/12/11 10:23:19;;;;;;;48.60;22.17;;;1.90;99.90;;;;;;5034667;28;20548;-70
2022/12/11 10:25:57;;;;;;;45.70;21.77;;;1.90;99.90;;;;;;5033016;28;20462;-69
2022/12/11 10:28:26;;;;;;;41.60;22.30;;;1.90;99.90;;;;;;5023459;28;20961;-70
2022/12/11 10:31:12;;;;;;;38.30;21.77;;;2.00;99.90;;;;;;5028168;28;20438;-69
2022/12/11 10:33:48;;;;;;;40.70;21.60;;;2.00;99.90;;;;;;5036234;28;21087;-69
2022/12/11 10:36:19;;;;;;;39.17;20.23;;;2.10;99.90;;;;;;5034449;28;20438;-69
2022/12/11 10:38:45;;;;;;;42.47;22.17;;;2.30;99.90;;;;;;5034492;28;20493;-69
2022/12/11 10:41:16;;;;;;;42.63;20.83;;;2.30;99.90;;;;;;5031070;28;20658;-69
2022/12/11 10:43:44;;;;;;;40.00;21.20;;;2.30;99.90;;;;;;5032627;28;20821;-69
2022/12/11 10:46:21;;;;;;;42.00;21.73;;;2.20;99.90;;;;;;5034245;28;21135;-69
2022/12/11 10:48:51;;;;;;;42.57;22.07;;;2.30;99.90;;;;;;5032056;28;21119;-69
2022/12/11 10:51:17;;;;;;;37.77;20.80;;;2.20;99.90;;;;;;5018838;28;20423;-69
2022/12/11 10:53:52;;;;;;;36.60;20.57;;;2.10;99.90;;;;;;5030548;28;20485;-69
2022/12/11 10:56:29;;;;;;;44.10;21.90;;;2.10;99.90;;;;;;5030036;28;20175;-69
2022/12/11 10:58:56;;;;;;;35.20;18.90;;;2.10;99.90;;;;;;5024416;28;20519;-70
2022/12/11 11:01:28;;;;;;;40.83;22.30;;;2.10;99.90;;;;;;5031691;28;20446;-70
2022/12/11 11:03:58;;;;;;;41.93;21.23;;;2.20;99.90;;;;;;5028610;28;20481;-69
2022/12/11 11:06:25;;;;;;;31.70;17.70;;;2.20;99.90;;;;;;5029108;28;20815;-69
2022/12/11 11:08:53;;;;;;;36.20;21.03;;;2.20;99.90;;;;;;5030399;28;20450;-69
2022/12/11 11:11:21;;;;;;;40.90;22.60;;;2.20;99.90;;;;;;5030944;28;20443;-69
2022/12/11 11:13:46;;;;;;;43.60;22.83;;;2.20;99.90;;;;;;5033410;28;20549;-70
2022/12/11 11:16:15;;;;;;;43.00;23.43;;;2.20;99.90;;;;;;5032969;28;20631;-69
2022/12/11 11:18:47;;;;;;;40.90;20.23;;;2.30;99.90;;;;;;5033439;28;20215;-69
2022/12/11 11:21:17;;;;;;;41.80;22.47;;;2.30;99.90;;;;;;5034030;28;20415;-69
2022/12/11 11:23:44;;;;;;;39.93;22.60;;;2.40;99.90;;;;;;5032243;28;20454;-69
2022/12/11 11:26:11;;;;;;;41.57;20.90;;;2.50;99.90;;;;;;5032349;28;20449;-69
2022/12/11 11:28:40;;;;;;;40.37;22.40;;;2.60;99.90;;;;;;5031828;28;20840;-69
2022/12/11 11:31:11;;;;;;;40.30;20.13;;;2.50;99.90;;;;;;5030001;28;20434;-69
2022/12/11 11:33:56;;;;;;;38.40;19.53;;;2.50;99.90;;;;;;5032740;28;20919;-69
2022/12/11 11:36:30;;;;;;;43.27;22.10;;;2.50;99.90;;;;;;5031438;28;20919;-68
2022/12/11 11:39:24;;;;;;;40.37;22.50;;;2.40;99.90;;;;;;5034480;28;20469;-69
2022/12/11 11:42:12;;;;;;;40.00;22.57;;;2.50;99.90;;;;;;5031734;28;20484;-68
2022/12/11 11:44:44;;;;;;;43.20;21.10;;;2.50;99.90;;;;;;5037887;28;20857;-68
2022/12/11 11:47:26;;;;;;;39.77;21.97;;;2.60;99.90;;;;;;5029646;28;22016;-69
2022/12/11 11:49:54;;;;;;;41.67;23.20;;;2.60;99.90;;;;;;5027816;28;20442;-69
2022/12/11 11:52:43;;;;;;;36.20;20.70;;;2.70;99.90;;;;;;5016626;28;20431;-68
2022/12/11 11:55:17;;;;;;;41.73;21.50;;;2.80;99.90;;;;;;5031764;28;20438;-69
2022/12/11 11:57:55;;;;;;;37.10;20.13;;;2.80;99.90;;;;;;5029874;28;20497;-69
2022/12/11 12:00:24;;;;;;;42.20;21.23;;;2.80;99.90;;;;;;5031187;28;20593;-69
2022/12/11 12:02:56;;;;;;;41.70;21.77;;;2.80;99.90;;;;;;5033653;28;20844;-67
2022/12/11 12:05:30;;;;;;;42.33;21.30;;;2.90;99.90;;;;;;5029132;28;20733;-68
2022/12/11 12:08:11;;;;;;;36.90;21.20;;;2.80;99.90;;;;;;5013298;28;20439;-68
2022/12/11 12:10:52;;;;;;;41.50;24.03;;;2.70;99.90;;;;;;5033748;28;20540;-68
2022/12/11 12:13:30;;;;;;;39.63;21.40;;;2.70;99.90;;;;;;5028700;28;20443;-68
2022/12/11 12:15:59;;;;;;;40.23;20.47;;;2.50;99.90;;;;;;5031653;28;20421;-68
2022/12/11 12:18:48;;;;;;;41.50;22.40;;;2.50;99.90;;;;;;5028487;28;20462;-68
2022/12/11 12:21:37;;;;;;;44.17;22.97;;;2.50;99.90;;;;;;5033046;28;20454;-68
2022/12/11 12:24:21;;;;;;;36.27;22.70;;;2.60;99.90;;;;;;5029855;28;20542;-68
2022/12/11 12:27:17;;;;;;;42.20;21.60;;;2.60;99.90;;;;;;5028104;28;20419;-69
2022/12/11 12:30:03;;;;;;;39.03;22.47;;;2.70;99.90;;;;;;5033151;28;20549;-68
2022/12/11 12:32:39;;;;;;;40.67;21.50;;;2.80;99.90;;;;;;5034510;28;20442;-68
2022/12/11 12:35:24;;;;;;;40.37;21.80;;;3.00;99.90;;;;;;5036883;28;20455;-68
2022/12/11 12:38:15;;;;;;;36.57;20.43;;;2.90;99.90;;;;;;5031392;28;21189;-69
2022/12/11 12:40:54;;;;;;;45.57;23.37;;;2.90;99.90;;;;;;5037051;28;20425;-67
2022/12/11 12:43:29;;;;;;;44.87;22.67;;;2.80;99.90;;;;;;5035983;28;20457;-67
2022/12/11 12:46:16;;;;;;;38.47;21.20;;;2.80;99.90;;;;;;5033262;28;20516;-68
2022/12/11 12:48:43;;;;;;;35.00;21.77;;;2.80;99.90;;;;;;5035963;28;20437;-70
2022/12/11 12:51:13;;;;;;;35.50;20.50;;;2.80;99.90;;;;;;5036013;28;20433;-70
2022/12/11 12:53:43;;;;;;;34.83;19.70;;;2.70;99.90;;;;;;5033543;28;20963;-69
2022/12/11 12:56:11;;;;;;;34.83;19.10;;;2.70;99.90;;;;;;5032102;28;20429;-69
2022/12/11 12:58:44;;;;;;;36.07;21.03;;;2.80;99.90;;;;;;5036697;28;20461;-69
2022/12/11 13:01:25;;;;;;;37.47;20.67;;;2.70;99.90;;;;;;5032733;28;20443;-69